sensor_id;sensor_type;location;lat;lon;timestamp;P1;durP1;ratioP1;P2;durP2;ratioP2
54247;SDS011;40161;39.768;2.722;2023-07-13T00:01:50;12.90;;;6.05;;
54247;SDS011;40161;39.768;2.722;2023-07-13T00:04:17;13.15;;;5.40;;
54247;SDS011;40161;39.768;2.722;2023-07-13T00:06:44;14.38;;;6.00;;
54247;SDS011;40161;39.768;2.722;2023-07-13T00:09:13;14.32;;;6.35;;
54247;SDS011;40161;39.768;2.722;2023-07-13T00:11:42;14.48;;;5.97;;
54247;SDS011;40161;39.768;2.722;2023-07-13T00:14:09;12.52;;;5.68;;
54247;SDS011;40161;39.768;2.722;2023-07-13T00:16:37;15.95;;;6.35;;
54247;SDS011;40161;39.768;2.722;2023-07-13T00:19:04;12.25;;;5.70;;
54247;SDS011;40161;39.768;2.722;2023-07-13T00:21:31;18.70;;;6.15;;
54247;SDS011;40161;39.768;2.722;2023-07-13T00:23:57;13.75;;;6.22;;
54247;SDS011;40161;39.768;2.722;2023-07-13T00:26:22;14.60;;;6.05;;
54247;SDS011;40161;39.768;2.722;2023-07-13T00:28:48;12.15;;;6.25;;
54247;SDS011;40161;39.768;2.722;2023-07-13T00:31:14;12.45;;;5.97;;
54247;SDS011;40161;39.768;2.722;2023-07-13T00:33:40;17.60;;;7.45;;
54247;SDS011;40161;39.768;2.722;2023-07-13T00:36:07;17.40;;;6.15;;
54247;SDS011;40161;39.768;2.722;2023-07-13T00:38:34;15.10;;;6.20;;
54247;SDS011;40161;39.768;2.722;2023-07-13T00:40:59;15.00;;;6.20;;
54247;SDS011;40161;39.768;2.722;2023-07-13T00:43:26;14.65;;;6.25;;
54247;SDS011;40161;39.768;2.722;2023-07-13T00:48:20;14.82;;;5.72;;
54247;SDS011;40161;39.768;2.722;2023-07-13T00:50:50;14.52;;;5.95;;
54247;SDS011;40161;39.768;2.722;2023-07-13T00:53:17;14.68;;;6.50;;
54247;SDS011;40161;39.768;2.722;2023-07-13T00:55:45;11.95;;;5.90;;
54247;SDS011;40161;39.768;2.722;2023-07-13T00:58:12;15.52;;;6.30;;
54247;SDS011;40161;39.768;2.722;2023-07-13T01:00:38;14.13;;;6.72;;
54247;SDS011;40161;39.768;2.722;2023-07-13T01:03:04;12.38;;;5.72;;
54247;SDS011;40161;39.768;2.722;2023-07-13T01:05:31;12.73;;;5.93;;
54247;SDS011;40161;39.768;2.722;2023-07-13T01:07:58;15.18;;;6.30;;
54247;SDS011;40161;39.768;2.722;2023-07-13T01:10:26;13.55;;;6.00;;
54247;SDS011;40161;39.768;2.722;2023-07-13T01:12:52;13.27;;;6.18;;
54247;SDS011;40161;39.768;2.722;2023-07-13T01:18:07;14.60;;;6.18;;
54247;SDS011;40161;39.768;2.722;2023-07-13T01:20:35;16.45;;;6.38;;
54247;SDS011;40161;39.768;2.722;2023-07-13T01:23:06;15.75;;;5.95;;
54247;SDS011;40161;39.768;2.722;2023-07-13T01:25:33;16.00;;;6.17;;
54247;SDS011;40161;39.768;2.722;2023-07-13T01:28:00;14.18;;;6.70;;
54247;SDS011;40161;39.768;2.722;2023-07-13T01:30:26;12.93;;;5.55;;
54247;SDS011;40161;39.768;2.722;2023-07-13T01:32:52;15.57;;;6.00;;
54247;SDS011;40161;39.768;2.722;2023-07-13T01:35:17;12.30;;;5.85;;
54247;SDS011;40161;39.768;2.722;2023-07-13T01:37:43;16.75;;;6.47;;
54247;SDS011;40161;39.768;2.722;2023-07-13T01:40:10;14.55;;;6.25;;
54247;SDS011;40161;39.768;2.722;2023-07-13T01:42:37;15.73;;;6.13;;
54247;SDS011;40161;39.768;2.722;2023-07-13T01:45:06;13.73;;;5.72;;
54247;SDS011;40161;39.768;2.722;2023-07-13T01:47:31;11.27;;;5.30;;
54247;SDS011;40161;39.768;2.722;2023-07-13T01:49:57;11.65;;;5.45;;
54247;SDS011;40161;39.768;2.722;2023-07-13T01:52:23;14.68;;;5.97;;
54247;SDS011;40161;39.768;2.722;2023-07-13T01:54:48;16.13;;;6.30;;
54247;SDS011;40161;39.768;2.722;2023-07-13T01:57:14;14.40;;;6.30;;
54247;SDS011;40161;39.768;2.722;2023-07-13T01:59:39;14.68;;;6.00;;
54247;SDS011;40161;39.768;2.722;2023-07-13T02:02:05;14.90;;;6.68;;
54247;SDS011;40161;39.768;2.722;2023-07-13T02:04:31;15.32;;;5.75;;
54247;SDS011;40161;39.768;2.722;2023-07-13T02:06:56;13.98;;;6.40;;
54247;SDS011;40161;39.768;2.722;2023-07-13T02:09:22;12.32;;;5.95;;
54247;SDS011;40161;39.768;2.722;2023-07-13T02:11:47;16.00;;;6.20;;
54247;SDS011;40161;39.768;2.722;2023-07-13T02:14:13;13.48;;;6.40;;
54247;SDS011;40161;39.768;2.722;2023-07-13T02:16:40;13.30;;;5.97;;
54247;SDS011;40161;39.768;2.722;2023-07-13T02:19:06;15.40;;;6.70;;
54247;SDS011;40161;39.768;2.722;2023-07-13T02:21:32;16.77;;;6.80;;
54247;SDS011;40161;39.768;2.722;2023-07-13T02:23:57;14.68;;;7.00;;
54247;SDS011;40161;39.768;2.722;2023-07-13T02:26:23;15.70;;;6.55;;
54247;SDS011;40161;39.768;2.722;2023-07-13T02:28:49;13.80;;;6.07;;
54247;SDS011;40161;39.768;2.722;2023-07-13T02:31:15;14.65;;;6.50;;
54247;SDS011;40161;39.768;2.722;2023-07-13T02:33:41;11.60;;;6.38;;
54247;SDS011;40161;39.768;2.722;2023-07-13T02:36:07;14.38;;;5.72;;
54247;SDS011;40161;39.768;2.722;2023-07-13T02:38:33;12.23;;;5.95;;
54247;SDS011;40161;39.768;2.722;2023-07-13T02:41:00;16.65;;;6.90;;
54247;SDS011;40161;39.768;2.722;2023-07-13T02:43:26;16.20;;;6.25;;
54247;SDS011;40161;39.768;2.722;2023-07-13T02:45:52;11.80;;;5.95;;
54247;SDS011;40161;39.768;2.722;2023-07-13T02:48:18;12.40;;;6.20;;
54247;SDS011;40161;39.768;2.722;2023-07-13T02:50:44;15.55;;;6.78;;
54247;SDS011;40161;39.768;2.722;2023-07-13T02:53:10;17.30;;;6.78;;
54247;SDS011;40161;39.768;2.722;2023-07-13T02:55:36;17.90;;;7.53;;
54247;SDS011;40161;39.768;2.722;2023-07-13T02:58:01;15.13;;;6.70;;
54247;SDS011;40161;39.768;2.722;2023-07-13T03:00:27;14.27;;;6.32;;
54247;SDS011;40161;39.768;2.722;2023-07-13T03:02:53;16.35;;;6.53;;
54247;SDS011;40161;39.768;2.722;2023-07-13T03:05:22;16.08;;;6.68;;
54247;SDS011;40161;39.768;2.722;2023-07-13T03:07:47;18.13;;;6.45;;
54247;SDS011;40161;39.768;2.722;2023-07-13T03:10:13;14.77;;;6.70;;
54247;SDS011;40161;39.768;2.722;2023-07-13T03:12:38;11.98;;;6.80;;
54247;SDS011;40161;39.768;2.722;2023-07-13T03:15:04;14.13;;;6.70;;
54247;SDS011;40161;39.768;2.722;2023-07-13T03:17:30;15.20;;;6.45;;
54247;SDS011;40161;39.768;2.722;2023-07-13T03:19:55;14.70;;;6.03;;
54247;SDS011;40161;39.768;2.722;2023-07-13T03:22:22;14.35;;;6.78;;
54247;SDS011;40161;39.768;2.722;2023-07-13T03:24:47;12.52;;;6.25;;
54247;SDS011;40161;39.768;2.722;2023-07-13T03:27:14;16.50;;;6.78;;
54247;SDS011;40161;39.768;2.722;2023-07-13T03:29:40;12.68;;;6.57;;
54247;SDS011;40161;39.768;2.722;2023-07-13T03:32:06;14.50;;;6.53;;
54247;SDS011;40161;39.768;2.722;2023-07-13T03:34:32;15.75;;;6.97;;
54247;SDS011;40161;39.768;2.722;2023-07-13T03:36:57;16.20;;;7.28;;
54247;SDS011;40161;39.768;2.722;2023-07-13T03:39:23;14.13;;;6.68;;
54247;SDS011;40161;39.768;2.722;2023-07-13T03:41:49;16.38;;;7.15;;
54247;SDS011;40161;39.768;2.722;2023-07-13T03:44:18;14.40;;;6.22;;
54247;SDS011;40161;39.768;2.722;2023-07-13T03:46:44;14.70;;;6.57;;
54247;SDS011;40161;39.768;2.722;2023-07-13T03:49:10;13.85;;;6.45;;
54247;SDS011;40161;39.768;2.722;2023-07-13T03:51:36;15.43;;;6.00;;
54247;SDS011;40161;39.768;2.722;2023-07-13T03:54:02;12.88;;;6.22;;
54247;SDS011;40161;39.768;2.722;2023-07-13T03:56:28;13.50;;;6.20;;
54247;SDS011;40161;39.768;2.722;2023-07-13T03:58:55;13.90;;;6.80;;
54247;SDS011;40161;39.768;2.722;2023-07-13T04:01:22;13.13;;;6.55;;
54247;SDS011;40161;39.768;2.722;2023-07-13T04:03:50;14.15;;;6.82;;
54247;SDS011;40161;39.768;2.722;2023-07-13T04:06:17;13.85;;;6.80;;
54247;SDS011;40161;39.768;2.722;2023-07-13T04:08:50;14.60;;;7.18;;
54247;SDS011;40161;39.768;2.722;2023-07-13T04:11:21;15.18;;;6.80;;
54247;SDS011;40161;39.768;2.722;2023-07-13T04:13:49;14.70;;;7.05;;
54247;SDS011;40161;39.768;2.722;2023-07-13T04:16:16;14.07;;;7.20;;
54247;SDS011;40161;39.768;2.722;2023-07-13T04:18:43;12.15;;;6.55;;
54247;SDS011;40161;39.768;2.722;2023-07-13T04:21:09;12.85;;;6.22;;
54247;SDS011;40161;39.768;2.722;2023-07-13T04:23:36;15.48;;;6.15;;
54247;SDS011;40161;39.768;2.722;2023-07-13T04:26:02;14.25;;;6.78;;
54247;SDS011;40161;39.768;2.722;2023-07-13T04:28:28;14.45;;;6.32;;
54247;SDS011;40161;39.768;2.722;2023-07-13T04:30:54;17.30;;;7.18;;
54247;SDS011;40161;39.768;2.722;2023-07-13T04:33:20;17.08;;;7.20;;
54247;SDS011;40161;39.768;2.722;2023-07-13T04:35:52;15.98;;;7.70;;
54247;SDS011;40161;39.768;2.722;2023-07-13T04:38:25;17.08;;;7.18;;
54247;SDS011;40161;39.768;2.722;2023-07-13T04:40:54;12.13;;;6.32;;
54247;SDS011;40161;39.768;2.722;2023-07-13T04:43:28;20.17;;;6.63;;
54247;SDS011;40161;39.768;2.722;2023-07-13T04:45:54;17.30;;;5.93;;
54247;SDS011;40161;39.768;2.722;2023-07-13T04:48:20;17.63;;;7.85;;
54247;SDS011;40161;39.768;2.722;2023-07-13T04:50:46;16.83;;;6.70;;
54247;SDS011;40161;39.768;2.722;2023-07-13T04:53:13;20.25;;;7.03;;
54247;SDS011;40161;39.768;2.722;2023-07-13T04:55:40;19.70;;;7.10;;
54247;SDS011;40161;39.768;2.722;2023-07-13T04:58:05;18.23;;;6.68;;
54247;SDS011;40161;39.768;2.722;2023-07-13T05:00:31;18.67;;;7.22;;
54247;SDS011;40161;39.768;2.722;2023-07-13T05:02:57;15.65;;;6.43;;
54247;SDS011;40161;39.768;2.722;2023-07-13T05:05:24;18.63;;;7.28;;
54247;SDS011;40161;39.768;2.722;2023-07-13T05:07:51;16.40;;;7.03;;
54247;SDS011;40161;39.768;2.722;2023-07-13T05:10:17;17.92;;;7.22;;
54247;SDS011;40161;39.768;2.722;2023-07-13T05:12:43;15.60;;;7.18;;
54247;SDS011;40161;39.768;2.722;2023-07-13T05:15:08;16.20;;;5.97;;
54247;SDS011;40161;39.768;2.722;2023-07-13T05:17:34;13.63;;;6.50;;
54247;SDS011;40161;39.768;2.722;2023-07-13T05:20:00;18.13;;;6.80;;
54247;SDS011;40161;39.768;2.722;2023-07-13T05:22:25;11.60;;;5.82;;
54247;SDS011;40161;39.768;2.722;2023-07-13T05:24:51;11.73;;;6.00;;
54247;SDS011;40161;39.768;2.722;2023-07-13T05:27:16;15.98;;;6.30;;
54247;SDS011;40161;39.768;2.722;2023-07-13T05:29:42;16.90;;;6.60;;
54247;SDS011;40161;39.768;2.722;2023-07-13T05:32:08;15.23;;;6.82;;
54247;SDS011;40161;39.768;2.722;2023-07-13T05:34:33;16.33;;;6.60;;
54247;SDS011;40161;39.768;2.722;2023-07-13T05:36:59;15.82;;;6.22;;
54247;SDS011;40161;39.768;2.722;2023-07-13T05:39:24;15.98;;;6.75;;
54247;SDS011;40161;39.768;2.722;2023-07-13T05:41:51;14.00;;;6.22;;
54247;SDS011;40161;39.768;2.722;2023-07-13T05:44:16;18.55;;;6.68;;
54247;SDS011;40161;39.768;2.722;2023-07-13T05:46:42;19.40;;;6.78;;
54247;SDS011;40161;39.768;2.722;2023-07-13T05:49:07;16.75;;;6.47;;
54247;SDS011;40161;39.768;2.722;2023-07-13T05:51:33;13.40;;;5.53;;
54247;SDS011;40161;39.768;2.722;2023-07-13T05:53:58;15.27;;;6.40;;
54247;SDS011;40161;39.768;2.722;2023-07-13T05:56:24;13.02;;;5.93;;
54247;SDS011;40161;39.768;2.722;2023-07-13T05:58:51;12.65;;;5.60;;
54247;SDS011;40161;39.768;2.722;2023-07-13T06:01:17;14.77;;;5.65;;
54247;SDS011;40161;39.768;2.722;2023-07-13T06:03:43;12.90;;;5.65;;
54247;SDS011;40161;39.768;2.722;2023-07-13T06:06:09;17.23;;;6.45;;
54247;SDS011;40161;39.768;2.722;2023-07-13T06:08:36;19.92;;;7.05;;
54247;SDS011;40161;39.768;2.722;2023-07-13T06:11:03;16.63;;;6.40;;
54247;SDS011;40161;39.768;2.722;2023-07-13T06:13:28;18.05;;;7.05;;
54247;SDS011;40161;39.768;2.722;2023-07-13T06:15:54;16.13;;;7.32;;
54247;SDS011;40161;39.768;2.722;2023-07-13T06:18:21;13.13;;;6.05;;
54247;SDS011;40161;39.768;2.722;2023-07-13T06:20:46;15.00;;;6.18;;
54247;SDS011;40161;39.768;2.722;2023-07-13T06:23:12;13.82;;;5.75;;
54247;SDS011;40161;39.768;2.722;2023-07-13T06:25:37;10.57;;;4.65;;
54247;SDS011;40161;39.768;2.722;2023-07-13T06:28:03;13.65;;;4.55;;
54247;SDS011;40161;39.768;2.722;2023-07-13T06:30:28;11.45;;;4.90;;
54247;SDS011;40161;39.768;2.722;2023-07-13T06:32:54;10.88;;;5.20;;
54247;SDS011;40161;39.768;2.722;2023-07-13T06:35:19;15.43;;;6.07;;
54247;SDS011;40161;39.768;2.722;2023-07-13T06:37:46;13.18;;;6.32;;
54247;SDS011;40161;39.768;2.722;2023-07-13T06:40:12;16.23;;;6.13;;
54247;SDS011;40161;39.768;2.722;2023-07-13T06:42:38;16.30;;;6.00;;
54247;SDS011;40161;39.768;2.722;2023-07-13T06:45:03;15.10;;;5.32;;
54247;SDS011;40161;39.768;2.722;2023-07-13T06:47:29;13.13;;;4.95;;
54247;SDS011;40161;39.768;2.722;2023-07-13T06:49:55;9.70;;;4.20;;
54247;SDS011;40161;39.768;2.722;2023-07-13T06:52:21;8.68;;;3.70;;
54247;SDS011;40161;39.768;2.722;2023-07-13T06:54:46;9.50;;;3.85;;
54247;SDS011;40161;39.768;2.722;2023-07-13T06:57:12;10.80;;;3.88;;
54247;SDS011;40161;39.768;2.722;2023-07-13T06:59:37;9.13;;;3.92;;
54247;SDS011;40161;39.768;2.722;2023-07-13T07:02:03;12.77;;;4.20;;
54247;SDS011;40161;39.768;2.722;2023-07-13T07:04:29;8.35;;;3.85;;
54247;SDS011;40161;39.768;2.722;2023-07-13T07:06:54;8.88;;;3.55;;
54247;SDS011;40161;39.768;2.722;2023-07-13T07:09:20;11.50;;;4.55;;
54247;SDS011;40161;39.768;2.722;2023-07-13T07:11:45;12.07;;;3.88;;
54247;SDS011;40161;39.768;2.722;2023-07-13T07:14:11;8.45;;;3.50;;
54247;SDS011;40161;39.768;2.722;2023-07-13T07:16:36;11.40;;;3.90;;
54247;SDS011;40161;39.768;2.722;2023-07-13T07:19:02;8.00;;;3.13;;
54247;SDS011;40161;39.768;2.722;2023-07-13T07:21:27;10.50;;;3.42;;
54247;SDS011;40161;39.768;2.722;2023-07-13T07:23:53;7.68;;;3.17;;
54247;SDS011;40161;39.768;2.722;2023-07-13T07:26:19;7.07;;;3.10;;
54247;SDS011;40161;39.768;2.722;2023-07-13T07:28:45;7.82;;;3.25;;
54247;SDS011;40161;39.768;2.722;2023-07-13T07:31:10;9.88;;;3.30;;
54247;SDS011;40161;39.768;2.722;2023-07-13T07:33:36;7.53;;;3.13;;
54247;SDS011;40161;39.768;2.722;2023-07-13T07:36:02;8.27;;;3.22;;
54247;SDS011;40161;39.768;2.722;2023-07-13T07:38:28;10.20;;;3.58;;
54247;SDS011;40161;39.768;2.722;2023-07-13T07:40:54;9.88;;;3.70;;
54247;SDS011;40161;39.768;2.722;2023-07-13T07:43:19;9.23;;;3.65;;
54247;SDS011;40161;39.768;2.722;2023-07-13T07:45:45;8.85;;;3.20;;
54247;SDS011;40161;39.768;2.722;2023-07-13T07:48:11;9.00;;;2.75;;
54247;SDS011;40161;39.768;2.722;2023-07-13T07:50:39;8.68;;;3.05;;
54247;SDS011;40161;39.768;2.722;2023-07-13T07:53:05;9.85;;;2.70;;
54247;SDS011;40161;39.768;2.722;2023-07-13T07:55:35;7.30;;;2.75;;
54247;SDS011;40161;39.768;2.722;2023-07-13T07:58:01;6.75;;;2.63;;
54247;SDS011;40161;39.768;2.722;2023-07-13T08:00:27;11.15;;;3.45;;
54247;SDS011;40161;39.768;2.722;2023-07-13T08:02:55;8.85;;;3.38;;
54247;SDS011;40161;39.768;2.722;2023-07-13T08:05:21;6.82;;;2.90;;
54247;SDS011;40161;39.768;2.722;2023-07-13T08:07:46;9.90;;;3.00;;
54247;SDS011;40161;39.768;2.722;2023-07-13T08:10:12;8.50;;;2.83;;
54247;SDS011;40161;39.768;2.722;2023-07-13T08:12:37;6.65;;;2.63;;
54247;SDS011;40161;39.768;2.722;2023-07-13T08:15:04;4.93;;;2.10;;
54247;SDS011;40161;39.768;2.722;2023-07-13T08:17:32;6.22;;;2.55;;
54247;SDS011;40161;39.768;2.722;2023-07-13T08:19:57;7.82;;;2.38;;
54247;SDS011;40161;39.768;2.722;2023-07-13T08:22:23;7.57;;;2.70;;
54247;SDS011;40161;39.768;2.722;2023-07-13T08:24:49;6.10;;;2.42;;
54247;SDS011;40161;39.768;2.722;2023-07-13T08:27:21;7.25;;;2.75;;
54247;SDS011;40161;39.768;2.722;2023-07-13T08:29:47;7.93;;;2.58;;
54247;SDS011;40161;39.768;2.722;2023-07-13T08:32:13;6.47;;;2.33;;
54247;SDS011;40161;39.768;2.722;2023-07-13T08:34:39;5.18;;;1.85;;
54247;SDS011;40161;39.768;2.722;2023-07-13T08:37:05;5.40;;;2.40;;
54247;SDS011;40161;39.768;2.722;2023-07-13T08:39:31;5.57;;;2.22;;
54247;SDS011;40161;39.768;2.722;2023-07-13T08:42:22;6.45;;;2.60;;
54247;SDS011;40161;39.768;2.722;2023-07-13T08:44:47;6.75;;;2.40;;
54247;SDS011;40161;39.768;2.722;2023-07-13T08:47:19;5.07;;;1.98;;
54247;SDS011;40161;39.768;2.722;2023-07-13T08:49:47;5.97;;;2.13;;
54247;SDS011;40161;39.768;2.722;2023-07-13T08:55:15;6.00;;;2.35;;
54247;SDS011;40161;39.768;2.722;2023-07-13T08:58:05;6.47;;;2.15;;
54247;SDS011;40161;39.768;2.722;2023-07-13T09:03:22;6.85;;;2.30;;
54247;SDS011;40161;39.768;2.722;2023-07-13T09:05:52;6.35;;;2.00;;
54247;SDS011;40161;39.768;2.722;2023-07-13T09:11:31;5.30;;;1.98;;
54247;SDS011;40161;39.768;2.722;2023-07-13T09:17:22;5.90;;;2.00;;
54247;SDS011;40161;39.768;2.722;2023-07-13T09:20:06;5.75;;;1.98;;
54247;SDS011;40161;39.768;2.722;2023-07-13T09:22:52;4.78;;;1.98;;
54247;SDS011;40161;39.768;2.722;2023-07-13T09:25:23;4.82;;;1.70;;
54247;SDS011;40161;39.768;2.722;2023-07-13T09:27:58;4.57;;;1.92;;
54247;SDS011;40161;39.768;2.722;2023-07-13T09:33:28;4.50;;;1.77;;
54247;SDS011;40161;39.768;2.722;2023-07-13T09:35:58;7.05;;;1.65;;
54247;SDS011;40161;39.768;2.722;2023-07-13T09:38:24;6.88;;;2.20;;
54247;SDS011;40161;39.768;2.722;2023-07-13T09:46:34;6.05;;;1.75;;
54247;SDS011;40161;39.768;2.722;2023-07-13T09:49:00;6.10;;;1.80;;
54247;SDS011;40161;39.768;2.722;2023-07-13T09:51:25;4.25;;;1.60;;
54247;SDS011;40161;39.768;2.722;2023-07-13T09:53:51;6.32;;;2.20;;
54247;SDS011;40161;39.768;2.722;2023-07-13T09:56:23;5.88;;;1.92;;
54247;SDS011;40161;39.768;2.722;2023-07-13T09:58:52;4.88;;;2.03;;
54247;SDS011;40161;39.768;2.722;2023-07-13T10:01:31;7.57;;;2.35;;
54247;SDS011;40161;39.768;2.722;2023-07-13T10:04:10;4.90;;;1.70;;
54247;SDS011;40161;39.768;2.722;2023-07-13T10:06:38;4.20;;;1.55;;
54247;SDS011;40161;39.768;2.722;2023-07-13T10:09:08;5.03;;;2.03;;
54247;SDS011;40161;39.768;2.722;2023-07-13T10:11:35;5.15;;;1.45;;
54247;SDS011;40161;39.768;2.722;2023-07-13T10:16:34;5.53;;;1.80;;
54247;SDS011;40161;39.768;2.722;2023-07-13T10:21:59;6.18;;;1.95;;
54247;SDS011;40161;39.768;2.722;2023-07-13T10:24:29;5.88;;;1.88;;
54247;SDS011;40161;39.768;2.722;2023-07-13T10:27:05;4.63;;;1.75;;
54247;SDS011;40161;39.768;2.722;2023-07-13T10:29:54;4.75;;;1.73;;
54247;SDS011;40161;39.768;2.722;2023-07-13T10:32:27;4.72;;;1.83;;
54247;SDS011;40161;39.768;2.722;2023-07-13T10:34:52;4.65;;;1.63;;
54247;SDS011;40161;39.768;2.722;2023-07-13T10:37:24;7.00;;;1.70;;
54247;SDS011;40161;39.768;2.722;2023-07-13T10:39:53;6.28;;;1.88;;
54247;SDS011;40161;39.768;2.722;2023-07-13T10:42:27;4.75;;;1.85;;
54247;SDS011;40161;39.768;2.722;2023-07-13T10:44:55;6.45;;;1.85;;
54247;SDS011;40161;39.768;2.722;2023-07-13T10:47:21;3.95;;;1.45;;
54247;SDS011;40161;39.768;2.722;2023-07-13T10:49:47;4.68;;;1.67;;
54247;SDS011;40161;39.768;2.722;2023-07-13T10:55:05;4.25;;;1.73;;
54247;SDS011;40161;39.768;2.722;2023-07-13T10:57:31;5.95;;;1.90;;
54247;SDS011;40161;39.768;2.722;2023-07-13T11:00:14;4.93;;;1.92;;
54247;SDS011;40161;39.768;2.722;2023-07-13T11:02:42;5.93;;;1.52;;
54247;SDS011;40161;39.768;2.722;2023-07-13T11:10:55;6.03;;;1.67;;
54247;SDS011;40161;39.768;2.722;2023-07-13T11:13:38;4.43;;;1.70;;
54247;SDS011;40161;39.768;2.722;2023-07-13T11:41:03;5.65;;;1.90;;
54247;SDS011;40161;39.768;2.722;2023-07-13T11:43:40;5.95;;;1.88;;
54247;SDS011;40161;39.768;2.722;2023-07-13T11:46:20;8.85;;;2.10;;
54247;SDS011;40161;39.768;2.722;2023-07-13T11:48:50;5.38;;;1.77;;
54247;SDS011;40161;39.768;2.722;2023-07-13T11:51:23;9.77;;;2.28;;
54247;SDS011;40161;39.768;2.722;2023-07-13T11:53:53;6.32;;;1.80;;
54247;SDS011;40161;39.768;2.722;2023-07-13T11:56:22;5.15;;;2.13;;
54247;SDS011;40161;39.768;2.722;2023-07-13T11:58:50;6.40;;;1.80;;
54247;SDS011;40161;39.768;2.722;2023-07-13T12:01:23;8.63;;;2.38;;
54247;SDS011;40161;39.768;2.722;2023-07-13T12:03:54;5.45;;;2.00;;
54247;SDS011;40161;39.768;2.722;2023-07-13T12:09:03;6.00;;;2.03;;
54247;SDS011;40161;39.768;2.722;2023-07-13T12:11:43;7.88;;;2.40;;
54247;SDS011;40161;39.768;2.722;2023-07-13T12:14:13;5.32;;;1.63;;
54247;SDS011;40161;39.768;2.722;2023-07-13T12:16:43;6.60;;;1.67;;
54247;SDS011;40161;39.768;2.722;2023-07-13T12:19:26;7.50;;;2.00;;
54247;SDS011;40161;39.768;2.722;2023-07-13T12:21:53;6.70;;;1.75;;
54247;SDS011;40161;39.768;2.722;2023-07-13T12:24:21;7.93;;;2.08;;
54247;SDS011;40161;39.768;2.722;2023-07-13T12:26:52;6.53;;;1.85;;
54247;SDS011;40161;39.768;2.722;2023-07-13T12:29:18;5.03;;;2.03;;
54247;SDS011;40161;39.768;2.722;2023-07-13T12:31:44;5.50;;;1.55;;
54247;SDS011;40161;39.768;2.722;2023-07-13T12:34:17;5.68;;;1.75;;
54247;SDS011;40161;39.768;2.722;2023-07-13T12:39:33;9.20;;;1.83;;
54247;SDS011;40161;39.768;2.722;2023-07-13T12:43:01;5.68;;;1.70;;
54247;SDS011;40161;39.768;2.722;2023-07-13T12:45:01;6.13;;;1.63;;
54247;SDS011;40161;39.768;2.722;2023-07-13T12:47:29;6.38;;;1.77;;
54247;SDS011;40161;39.768;2.722;2023-07-13T12:49:59;6.22;;;1.73;;
54247;SDS011;40161;39.768;2.722;2023-07-13T12:52:34;5.13;;;1.80;;
54247;SDS011;40161;39.768;2.722;2023-07-13T12:57:47;7.43;;;1.80;;
54247;SDS011;40161;39.768;2.722;2023-07-13T13:00:23;7.82;;;2.30;;
54247;SDS011;40161;39.768;2.722;2023-07-13T13:02:52;5.25;;;1.50;;
54247;SDS011;40161;39.768;2.722;2023-07-13T13:05:21;4.90;;;1.50;;
54247;SDS011;40161;39.768;2.722;2023-07-13T13:07:48;5.75;;;1.50;;
54247;SDS011;40161;39.768;2.722;2023-07-13T13:10:15;6.47;;;1.25;;
54247;SDS011;40161;39.768;2.722;2023-07-13T13:12:40;6.93;;;1.48;;
54247;SDS011;40161;39.768;2.722;2023-07-13T13:15:09;5.85;;;1.83;;
54247;SDS011;40161;39.768;2.722;2023-07-13T13:17:37;6.50;;;1.90;;
54247;SDS011;40161;39.768;2.722;2023-07-13T13:20:16;6.45;;;1.42;;
54247;SDS011;40161;39.768;2.722;2023-07-13T13:22:43;6.43;;;1.80;;
54247;SDS011;40161;39.768;2.722;2023-07-13T13:25:10;6.55;;;1.70;;
54247;SDS011;40161;39.768;2.722;2023-07-13T13:27:43;7.10;;;1.80;;
54247;SDS011;40161;39.768;2.722;2023-07-13T13:30:10;4.22;;;1.48;;
54247;SDS011;40161;39.768;2.722;2023-07-13T13:32:38;7.15;;;1.95;;
54247;SDS011;40161;39.768;2.722;2023-07-13T13:35:05;7.53;;;1.75;;
54247;SDS011;40161;39.768;2.722;2023-07-13T13:37:31;5.15;;;1.73;;
54247;SDS011;40161;39.768;2.722;2023-07-13T13:39:57;6.18;;;1.63;;
54247;SDS011;40161;39.768;2.722;2023-07-13T13:42:22;6.38;;;1.85;;
54247;SDS011;40161;39.768;2.722;2023-07-13T13:44:50;6.97;;;1.75;;
54247;SDS011;40161;39.768;2.722;2023-07-13T13:49:50;6.93;;;1.92;;
54247;SDS011;40161;39.768;2.722;2023-07-13T13:52:15;6.85;;;2.10;;
54247;SDS011;40161;39.768;2.722;2023-07-13T13:54:41;7.38;;;2.00;;
54247;SDS011;40161;39.768;2.722;2023-07-13T13:57:06;4.72;;;1.67;;
54247;SDS011;40161;39.768;2.722;2023-07-13T13:59:33;5.25;;;1.52;;
54247;SDS011;40161;39.768;2.722;2023-07-13T14:02:07;4.65;;;1.60;;
54247;SDS011;40161;39.768;2.722;2023-07-13T14:04:55;5.78;;;2.03;;
54247;SDS011;40161;39.768;2.722;2023-07-13T14:07:24;5.22;;;1.60;;
54247;SDS011;40161;39.768;2.722;2023-07-13T14:09:52;5.35;;;1.70;;
54247;SDS011;40161;39.768;2.722;2023-07-13T14:12:19;4.95;;;1.45;;
54247;SDS011;40161;39.768;2.722;2023-07-13T14:14:45;4.88;;;1.58;;
54247;SDS011;40161;39.768;2.722;2023-07-13T14:17:21;7.07;;;1.63;;
54247;SDS011;40161;39.768;2.722;2023-07-13T14:19:50;4.93;;;1.65;;
54247;SDS011;40161;39.768;2.722;2023-07-13T14:22:17;5.05;;;1.50;;
54247;SDS011;40161;39.768;2.722;2023-07-13T14:24:43;5.55;;;1.67;;
54247;SDS011;40161;39.768;2.722;2023-07-13T14:27:12;3.75;;;1.42;;
54247;SDS011;40161;39.768;2.722;2023-07-13T14:29:39;4.45;;;1.52;;
54247;SDS011;40161;39.768;2.722;2023-07-13T14:32:10;5.65;;;1.80;;
54247;SDS011;40161;39.768;2.722;2023-07-13T14:34:36;5.75;;;1.52;;
54247;SDS011;40161;39.768;2.722;2023-07-13T14:37:02;5.43;;;1.70;;
54247;SDS011;40161;39.768;2.722;2023-07-13T14:39:29;5.50;;;1.50;;
54247;SDS011;40161;39.768;2.722;2023-07-13T14:41:56;5.63;;;1.70;;
54247;SDS011;40161;39.768;2.722;2023-07-13T14:44:30;5.10;;;1.58;;
54247;SDS011;40161;39.768;2.722;2023-07-13T14:47:00;6.72;;;1.75;;
54247;SDS011;40161;39.768;2.722;2023-07-13T14:49:32;7.43;;;2.13;;
54247;SDS011;40161;39.768;2.722;2023-07-13T14:52:11;4.43;;;1.73;;
54247;SDS011;40161;39.768;2.722;2023-07-13T14:54:43;6.97;;;1.60;;
54247;SDS011;40161;39.768;2.722;2023-07-13T14:57:10;6.53;;;1.63;;
54247;SDS011;40161;39.768;2.722;2023-07-13T14:59:47;6.68;;;2.00;;
54247;SDS011;40161;39.768;2.722;2023-07-13T15:02:27;5.13;;;1.70;;
54247;SDS011;40161;39.768;2.722;2023-07-13T15:04:56;6.95;;;2.00;;
54247;SDS011;40161;39.768;2.722;2023-07-13T15:07:22;5.60;;;1.95;;
54247;SDS011;40161;39.768;2.722;2023-07-13T15:09:48;6.25;;;1.77;;
54247;SDS011;40161;39.768;2.722;2023-07-13T15:12:15;6.63;;;1.67;;
54247;SDS011;40161;39.768;2.722;2023-07-13T15:14:41;6.22;;;1.60;;
54247;SDS011;40161;39.768;2.722;2023-07-13T15:17:17;6.97;;;1.83;;
54247;SDS011;40161;39.768;2.722;2023-07-13T15:19:51;4.93;;;1.80;;
54247;SDS011;40161;39.768;2.722;2023-07-13T15:22:17;5.82;;;1.85;;
54247;SDS011;40161;39.768;2.722;2023-07-13T15:24:42;5.90;;;1.63;;
54247;SDS011;40161;39.768;2.722;2023-07-13T15:27:11;4.85;;;1.48;;
54247;SDS011;40161;39.768;2.722;2023-07-13T15:29:37;6.30;;;1.80;;
54247;SDS011;40161;39.768;2.722;2023-07-13T15:32:03;5.38;;;1.50;;
54247;SDS011;40161;39.768;2.722;2023-07-13T15:34:30;6.05;;;1.77;;
54247;SDS011;40161;39.768;2.722;2023-07-13T15:36:56;6.75;;;1.60;;
54247;SDS011;40161;39.768;2.722;2023-07-13T15:39:21;6.60;;;1.80;;
54247;SDS011;40161;39.768;2.722;2023-07-13T15:41:47;5.90;;;1.90;;
54247;SDS011;40161;39.768;2.722;2023-07-13T15:44:21;7.03;;;1.98;;
54247;SDS011;40161;39.768;2.722;2023-07-13T15:46:52;6.38;;;1.70;;
54247;SDS011;40161;39.768;2.722;2023-07-13T15:49:20;4.57;;;1.50;;
54247;SDS011;40161;39.768;2.722;2023-07-13T15:51:46;6.00;;;1.60;;
54247;SDS011;40161;39.768;2.722;2023-07-13T15:54:13;4.10;;;1.73;;
54247;SDS011;40161;39.768;2.722;2023-07-13T15:56:41;5.00;;;1.63;;
54247;SDS011;40161;39.768;2.722;2023-07-13T15:59:11;6.40;;;1.60;;
54247;SDS011;40161;39.768;2.722;2023-07-13T16:01:39;9.40;;;1.92;;